sensor_id;sensor_type;location;lat;lon;timestamp;P1;durP1;ratioP1;P2;durP2;ratioP2
18796;SDS011;9526;52.612;13.300;2022-11-15T00:02:13;131.23;;;44.63;;
18796;SDS011;9526;52.612;13.300;2022-11-15T00:04:55;132.40;;;45.03;;
18796;SDS011;9526;52.612;13.300;2022-11-15T00:07:37;135.50;;;45.83;;
18796;SDS011;9526;52.612;13.300;2022-11-15T00:10:34;131.77;;;43.70;;
18796;SDS011;9526;52.612;13.300;2022-11-15T00:13:17;137.80;;;45.67;;
18796;SDS011;9526;52.612;13.300;2022-11-15T00:16:01;143.03;;;44.67;;
18796;SDS011;9526;52.612;13.300;2022-11-15T00:18:44;115.83;;;41.17;;
18796;SDS011;9526;52.612;13.300;2022-11-15T00:21:29;136.87;;;44.60;;
18796;SDS011;9526;52.612;13.300;2022-11-15T00:24:11;118.40;;;42.57;;
18796;SDS011;9526;52.612;13.300;2022-11-15T00:26:54;126.20;;;42.93;;
18796;SDS011;9526;52.612;13.300;2022-11-15T00:29:36;126.93;;;42.00;;
18796;SDS011;9526;52.612;13.300;2022-11-15T00:32:24;130.53;;;42.37;;
18796;SDS011;9526;52.612;13.300;2022-11-15T00:35:07;123.80;;;41.90;;
18796;SDS011;9526;52.612;13.300;2022-11-15T00:37:49;121.53;;;41.93;;
18796;SDS011;9526;52.612;13.300;2022-11-15T00:40:34;118.33;;;41.97;;
18796;SDS011;9526;52.612;13.300;2022-11-15T00:43:17;133.17;;;41.97;;
18796;SDS011;9526;52.612;13.300;2022-11-15T00:45:59;130.07;;;43.10;;
18796;SDS011;9526;52.612;13.300;2022-11-15T00:48:43;110.43;;;40.03;;
18796;SDS011;9526;52.612;13.300;2022-11-15T00:51:26;118.90;;;41.53;;
18796;SDS011;9526;52.612;13.300;2022-11-15T00:54:08;134.27;;;43.00;;
18796;SDS011;9526;52.612;13.300;2022-11-15T00:56:51;150.47;;;42.13;;
18796;SDS011;9526;52.612;13.300;2022-11-15T00:59:33;120.87;;;42.63;;
18796;SDS011;9526;52.612;13.300;2022-11-15T01:02:15;122.87;;;41.30;;
18796;SDS011;9526;52.612;13.300;2022-11-15T01:04:58;111.67;;;39.63;;
18796;SDS011;9526;52.612;13.300;2022-11-15T01:07:40;109.87;;;39.63;;
18796;SDS011;9526;52.612;13.300;2022-11-15T01:10:23;130.87;;;41.03;;
18796;SDS011;9526;52.612;13.300;2022-11-15T01:13:05;124.23;;;41.33;;
18796;SDS011;9526;52.612;13.300;2022-11-15T01:15:47;127.97;;;41.37;;
18796;SDS011;9526;52.612;13.300;2022-11-15T01:18:30;127.07;;;42.27;;
18796;SDS011;9526;52.612;13.300;2022-11-15T01:21:14;123.10;;;41.77;;
18796;SDS011;9526;52.612;13.300;2022-11-15T01:23:58;116.27;;;41.87;;
18796;SDS011;9526;52.612;13.300;2022-11-15T01:26:41;138.43;;;42.73;;
18796;SDS011;9526;52.612;13.300;2022-11-15T01:29:23;114.40;;;39.97;;
18796;SDS011;9526;52.612;13.300;2022-11-15T01:32:05;126.43;;;42.43;;
18796;SDS011;9526;52.612;13.300;2022-11-15T01:34:47;118.13;;;40.47;;
18796;SDS011;9526;52.612;13.300;2022-11-15T01:37:31;107.10;;;38.50;;
18796;SDS011;9526;52.612;13.300;2022-11-15T01:40:14;120.30;;;40.00;;
18796;SDS011;9526;52.612;13.300;2022-11-15T01:42:56;118.90;;;40.43;;
18796;SDS011;9526;52.612;13.300;2022-11-15T01:45:38;121.47;;;40.03;;
18796;SDS011;9526;52.612;13.300;2022-11-15T01:48:21;113.07;;;39.37;;
18796;SDS011;9526;52.612;13.300;2022-11-15T01:51:08;106.50;;;39.27;;
18796;SDS011;9526;52.612;13.300;2022-11-15T01:53:55;120.37;;;39.63;;
18796;SDS011;9526;52.612;13.300;2022-11-15T01:56:42;113.87;;;38.47;;
18796;SDS011;9526;52.612;13.300;2022-11-15T01:59:29;114.90;;;37.40;;
18796;SDS011;9526;52.612;13.300;2022-11-15T02:02:12;107.10;;;38.17;;
18796;SDS011;9526;52.612;13.300;2022-11-15T02:04:54;119.50;;;38.23;;
18796;SDS011;9526;52.612;13.300;2022-11-15T02:07:36;107.47;;;38.80;;
18796;SDS011;9526;52.612;13.300;2022-11-15T02:10:21;105.73;;;37.77;;
18796;SDS011;9526;52.612;13.300;2022-11-15T02:13:05;126.03;;;38.37;;
18796;SDS011;9526;52.612;13.300;2022-11-15T02:15:49;118.00;;;39.53;;
18796;SDS011;9526;52.612;13.300;2022-11-15T02:18:44;121.10;;;39.43;;
18796;SDS011;9526;52.612;13.300;2022-11-15T02:21:35;120.50;;;37.93;;
18796;SDS011;9526;52.612;13.300;2022-11-15T02:31:09;97.57;;;34.53;;
18796;SDS011;9526;52.612;13.300;2022-11-15T02:33:59;109.03;;;36.57;;
18796;SDS011;9526;52.612;13.300;2022-11-15T02:36:49;111.17;;;37.33;;
18796;SDS011;9526;52.612;13.300;2022-11-15T02:39:41;113.53;;;38.27;;
18796;SDS011;9526;52.612;13.300;2022-11-15T02:42:32;120.47;;;39.40;;
18796;SDS011;9526;52.612;13.300;2022-11-15T02:45:35;115.87;;;37.90;;
18796;SDS011;9526;52.612;13.300;2022-11-15T02:48:23;106.53;;;35.87;;
18796;SDS011;9526;52.612;13.300;2022-11-15T02:51:07;110.70;;;37.17;;
18796;SDS011;9526;52.612;13.300;2022-11-15T02:53:50;106.20;;;37.30;;
18796;SDS011;9526;52.612;13.300;2022-11-15T02:56:32;116.20;;;37.57;;
18796;SDS011;9526;52.612;13.300;2022-11-15T02:59:28;106.30;;;36.77;;
18796;SDS011;9526;52.612;13.300;2022-11-15T03:05:44;103.00;;;35.90;;
18796;SDS011;9526;52.612;13.300;2022-11-15T03:08:36;110.60;;;37.60;;
18796;SDS011;9526;52.612;13.300;2022-11-15T03:11:28;110.40;;;35.33;;
18796;SDS011;9526;52.612;13.300;2022-11-15T03:14:18;111.73;;;37.53;;
18796;SDS011;9526;52.612;13.300;2022-11-15T03:17:05;117.47;;;36.60;;
18796;SDS011;9526;52.612;13.300;2022-11-15T03:19:58;102.37;;;35.90;;
18796;SDS011;9526;52.612;13.300;2022-11-15T03:22:44;118.80;;;38.53;;
18796;SDS011;9526;52.612;13.300;2022-11-15T03:25:29;118.07;;;39.27;;
18796;SDS011;9526;52.612;13.300;2022-11-15T03:28:16;133.33;;;40.37;;
18796;SDS011;9526;52.612;13.300;2022-11-15T03:31:01;111.07;;;38.83;;
18796;SDS011;9526;52.612;13.300;2022-11-15T03:34:06;113.73;;;35.87;;
18796;SDS011;9526;52.612;13.300;2022-11-15T03:36:54;121.13;;;38.27;;
18796;SDS011;9526;52.612;13.300;2022-11-15T03:39:38;104.17;;;36.63;;
18796;SDS011;9526;52.612;13.300;2022-11-15T03:42:21;111.00;;;37.90;;
18796;SDS011;9526;52.612;13.300;2022-11-15T03:45:12;108.00;;;37.97;;
18796;SDS011;9526;52.612;13.300;2022-11-15T03:47:58;112.33;;;38.97;;
18796;SDS011;9526;52.612;13.300;2022-11-15T03:50:45;111.87;;;37.17;;
18796;SDS011;9526;52.612;13.300;2022-11-15T03:53:28;121.93;;;38.27;;
18796;SDS011;9526;52.612;13.300;2022-11-15T03:56:13;116.73;;;37.77;;
18796;SDS011;9526;52.612;13.300;2022-11-15T03:58:55;118.53;;;38.17;;
18796;SDS011;9526;52.612;13.300;2022-11-15T04:01:37;107.57;;;36.60;;
18796;SDS011;9526;52.612;13.300;2022-11-15T04:04:20;119.33;;;37.57;;
18796;SDS011;9526;52.612;13.300;2022-11-15T04:07:02;112.10;;;37.10;;
18796;SDS011;9526;52.612;13.300;2022-11-15T04:09:44;121.23;;;37.07;;
18796;SDS011;9526;52.612;13.300;2022-11-15T04:12:47;131.57;;;38.13;;
18796;SDS011;9526;52.612;13.300;2022-11-15T04:15:29;121.87;;;37.93;;
18796;SDS011;9526;52.612;13.300;2022-11-15T04:18:11;105.63;;;35.77;;
18796;SDS011;9526;52.612;13.300;2022-11-15T04:20:53;108.77;;;37.23;;
18796;SDS011;9526;52.612;13.300;2022-11-15T04:23:53;111.90;;;36.83;;
18796;SDS011;9526;52.612;13.300;2022-11-15T04:26:53;106.03;;;38.07;;
18796;SDS011;9526;52.612;13.300;2022-11-15T04:29:37;112.27;;;37.63;;
18796;SDS011;9526;52.612;13.300;2022-11-15T04:32:19;136.43;;;38.37;;
18796;SDS011;9526;52.612;13.300;2022-11-15T04:35:01;116.73;;;36.63;;
18796;SDS011;9526;52.612;13.300;2022-11-15T04:37:43;119.23;;;37.73;;
18796;SDS011;9526;52.612;13.300;2022-11-15T04:40:28;108.37;;;36.77;;
18796;SDS011;9526;52.612;13.300;2022-11-15T04:43:11;118.60;;;36.43;;
18796;SDS011;9526;52.612;13.300;2022-11-15T04:45:54;122.17;;;37.03;;
18796;SDS011;9526;52.612;13.300;2022-11-15T04:48:36;113.70;;;36.50;;
18796;SDS011;9526;52.612;13.300;2022-11-15T04:51:19;117.33;;;36.80;;
18796;SDS011;9526;52.612;13.300;2022-11-15T04:54:02;114.97;;;36.33;;
18796;SDS011;9526;52.612;13.300;2022-11-15T04:56:44;114.27;;;37.60;;
18796;SDS011;9526;52.612;13.300;2022-11-15T04:59:26;117.97;;;35.97;;
18796;SDS011;9526;52.612;13.300;2022-11-15T05:02:10;123.60;;;36.20;;
18796;SDS011;9526;52.612;13.300;2022-11-15T05:04:52;124.27;;;36.33;;
18796;SDS011;9526;52.612;13.300;2022-11-15T05:07:33;111.20;;;35.73;;
18796;SDS011;9526;52.612;13.300;2022-11-15T05:10:16;108.83;;;36.57;;
18796;SDS011;9526;52.612;13.300;2022-11-15T05:12:58;133.07;;;37.80;;
18796;SDS011;9526;52.612;13.300;2022-11-15T05:15:40;110.60;;;37.03;;
18796;SDS011;9526;52.612;13.300;2022-11-15T05:18:23;108.03;;;35.33;;
18796;SDS011;9526;52.612;13.300;2022-11-15T05:21:06;122.70;;;36.77;;
18796;SDS011;9526;52.612;13.300;2022-11-15T05:23:51;112.10;;;36.17;;
18796;SDS011;9526;52.612;13.300;2022-11-15T05:26:33;114.93;;;36.83;;
18796;SDS011;9526;52.612;13.300;2022-11-15T05:29:16;114.47;;;34.90;;
18796;SDS011;9526;52.612;13.300;2022-11-15T05:31:58;131.67;;;37.60;;
18796;SDS011;9526;52.612;13.300;2022-11-15T05:34:42;122.63;;;36.27;;
18796;SDS011;9526;52.612;13.300;2022-11-15T05:37:24;116.23;;;36.37;;
18796;SDS011;9526;52.612;13.300;2022-11-15T05:40:07;149.63;;;37.13;;
18796;SDS011;9526;52.612;13.300;2022-11-15T05:42:50;110.83;;;35.20;;
18796;SDS011;9526;52.612;13.300;2022-11-15T05:45:32;108.23;;;35.03;;
18796;SDS011;9526;52.612;13.300;2022-11-15T05:48:16;121.63;;;36.03;;
18796;SDS011;9526;52.612;13.300;2022-11-15T05:51:00;109.53;;;35.13;;
18796;SDS011;9526;52.612;13.300;2022-11-15T05:53:43;122.60;;;36.07;;
18796;SDS011;9526;52.612;13.300;2022-11-15T05:56:25;103.07;;;34.80;;
18796;SDS011;9526;52.612;13.300;2022-11-15T05:59:08;106.83;;;36.07;;
18796;SDS011;9526;52.612;13.300;2022-11-15T06:01:52;108.37;;;36.53;;
18796;SDS011;9526;52.612;13.300;2022-11-15T06:04:34;129.33;;;38.33;;
18796;SDS011;9526;52.612;13.300;2022-11-15T06:07:18;125.30;;;37.90;;
18796;SDS011;9526;52.612;13.300;2022-11-15T06:10:00;105.50;;;37.20;;
18796;SDS011;9526;52.612;13.300;2022-11-15T06:12:42;132.93;;;38.87;;
18796;SDS011;9526;52.612;13.300;2022-11-15T06:15:24;123.57;;;39.50;;
18796;SDS011;9526;52.612;13.300;2022-11-15T06:18:07;121.57;;;38.83;;
18796;SDS011;9526;52.612;13.300;2022-11-15T06:20:49;125.33;;;38.17;;
18796;SDS011;9526;52.612;13.300;2022-11-15T06:23:33;144.60;;;40.10;;
18796;SDS011;9526;52.612;13.300;2022-11-15T06:26:16;116.10;;;37.83;;
18796;SDS011;9526;52.612;13.300;2022-11-15T06:28:58;126.87;;;38.87;;
18796;SDS011;9526;52.612;13.300;2022-11-15T06:31:40;121.90;;;37.67;;
18796;SDS011;9526;52.612;13.300;2022-11-15T06:34:23;111.93;;;36.03;;
18796;SDS011;9526;52.612;13.300;2022-11-15T06:37:05;112.90;;;37.80;;
18796;SDS011;9526;52.612;13.300;2022-11-15T06:39:48;114.73;;;37.00;;
18796;SDS011;9526;52.612;13.300;2022-11-15T06:42:30;112.83;;;37.20;;
18796;SDS011;9526;52.612;13.300;2022-11-15T06:45:12;118.40;;;37.73;;
18796;SDS011;9526;52.612;13.300;2022-11-15T06:47:54;130.77;;;36.10;;
18796;SDS011;9526;52.612;13.300;2022-11-15T06:50:37;117.67;;;38.50;;
18796;SDS011;9526;52.612;13.300;2022-11-15T06:53:19;118.17;;;38.13;;
18796;SDS011;9526;52.612;13.300;2022-11-15T06:56:04;112.43;;;37.20;;
18796;SDS011;9526;52.612;13.300;2022-11-15T06:58:48;120.70;;;36.17;;
18796;SDS011;9526;52.612;13.300;2022-11-15T07:01:31;115.97;;;35.77;;
18796;SDS011;9526;52.612;13.300;2022-11-15T07:04:13;130.37;;;38.10;;
18796;SDS011;9526;52.612;13.300;2022-11-15T07:06:55;116.77;;;35.97;;
18796;SDS011;9526;52.612;13.300;2022-11-15T07:09:37;135.37;;;40.17;;
18796;SDS011;9526;52.612;13.300;2022-11-15T07:12:21;128.73;;;39.73;;
18796;SDS011;9526;52.612;13.300;2022-11-15T07:15:03;122.13;;;40.10;;
18796;SDS011;9526;52.612;13.300;2022-11-15T07:17:47;140.63;;;42.23;;
18796;SDS011;9526;52.612;13.300;2022-11-15T07:20:29;130.50;;;39.80;;
18796;SDS011;9526;52.612;13.300;2022-11-15T07:23:11;122.27;;;42.00;;
18796;SDS011;9526;52.612;13.300;2022-11-15T07:25:56;121.40;;;40.93;;
18796;SDS011;9526;52.612;13.300;2022-11-15T07:28:41;121.53;;;42.43;;
18796;SDS011;9526;52.612;13.300;2022-11-15T07:31:23;116.67;;;41.07;;
18796;SDS011;9526;52.612;13.300;2022-11-15T07:34:05;113.00;;;40.57;;
18796;SDS011;9526;52.612;13.300;2022-11-15T07:36:48;124.10;;;41.90;;
18796;SDS011;9526;52.612;13.300;2022-11-15T07:39:30;120.13;;;41.37;;
18796;SDS011;9526;52.612;13.300;2022-11-15T07:42:13;139.53;;;43.17;;
18796;SDS011;9526;52.612;13.300;2022-11-15T07:45:13;127.97;;;39.77;;
18796;SDS011;9526;52.612;13.300;2022-11-15T07:47:56;124.07;;;43.03;;
18796;SDS011;9526;52.612;13.300;2022-11-15T07:50:40;137.90;;;42.90;;
18796;SDS011;9526;52.612;13.300;2022-11-15T07:53:23;120.10;;;41.50;;
18796;SDS011;9526;52.612;13.300;2022-11-15T07:56:05;121.27;;;41.80;;
18796;SDS011;9526;52.612;13.300;2022-11-15T07:58:48;143.00;;;44.23;;
18796;SDS011;9526;52.612;13.300;2022-11-15T08:01:32;130.67;;;42.63;;
18796;SDS011;9526;52.612;13.300;2022-11-15T08:04:14;128.33;;;41.93;;
18796;SDS011;9526;52.612;13.300;2022-11-15T08:06:56;136.33;;;44.10;;
18796;SDS011;9526;52.612;13.300;2022-11-15T08:09:39;147.10;;;45.73;;
18796;SDS011;9526;52.612;13.300;2022-11-15T08:12:22;140.17;;;46.63;;
18796;SDS011;9526;52.612;13.300;2022-11-15T08:15:05;126.33;;;43.90;;
18796;SDS011;9526;52.612;13.300;2022-11-15T08:17:53;130.10;;;45.43;;
18796;SDS011;9526;52.612;13.300;2022-11-15T08:20:37;129.60;;;46.77;;
18796;SDS011;9526;52.612;13.300;2022-11-15T08:23:19;134.87;;;47.80;;
18796;SDS011;9526;52.612;13.300;2022-11-15T08:26:01;147.23;;;48.30;;
18796;SDS011;9526;52.612;13.300;2022-11-15T08:28:44;147.93;;;47.10;;
18796;SDS011;9526;52.612;13.300;2022-11-15T08:31:26;136.83;;;48.03;;
18796;SDS011;9526;52.612;13.300;2022-11-15T08:34:09;137.50;;;46.70;;
18796;SDS011;9526;52.612;13.300;2022-11-15T08:36:51;137.73;;;47.40;;
18796;SDS011;9526;52.612;13.300;2022-11-15T08:39:33;127.77;;;46.93;;
18796;SDS011;9526;52.612;13.300;2022-11-15T08:42:16;119.53;;;45.53;;
18796;SDS011;9526;52.612;13.300;2022-11-15T08:44:59;145.00;;;47.57;;
18796;SDS011;9526;52.612;13.300;2022-11-15T08:47:41;124.27;;;46.27;;
18796;SDS011;9526;52.612;13.300;2022-11-15T08:50:31;120.83;;;44.70;;
18796;SDS011;9526;52.612;13.300;2022-11-15T08:53:13;110.23;;;42.43;;
18796;SDS011;9526;52.612;13.300;2022-11-15T08:55:55;104.57;;;40.97;;
18796;SDS011;9526;52.612;13.300;2022-11-15T08:58:37;100.73;;;41.67;;
18796;SDS011;9526;52.612;13.300;2022-11-15T09:01:20;80.28;;;36.97;;
18796;SDS011;9526;52.612;13.300;2022-11-15T09:04:03;62.70;;;32.05;;
18796;SDS011;9526;52.612;13.300;2022-11-15T09:06:46;50.22;;;27.40;;
18796;SDS011;9526;52.612;13.300;2022-11-15T09:09:29;47.55;;;29.02;;
18796;SDS011;9526;52.612;13.300;2022-11-15T09:12:11;49.22;;;28.30;;
18796;SDS011;9526;52.612;13.300;2022-11-15T09:14:53;51.20;;;27.70;;
18796;SDS011;9526;52.612;13.300;2022-11-15T09:17:35;43.92;;;27.33;;
18796;SDS011;9526;52.612;13.300;2022-11-15T09:20:18;45.38;;;27.55;;
18796;SDS011;9526;52.612;13.300;2022-11-15T09:23:02;40.15;;;26.00;;
18796;SDS011;9526;52.612;13.300;2022-11-15T09:25:45;44.72;;;26.88;;
18796;SDS011;9526;52.612;13.300;2022-11-15T09:28:27;41.53;;;26.23;;
18796;SDS011;9526;52.612;13.300;2022-11-15T09:31:11;43.92;;;25.30;;
18796;SDS011;9526;52.612;13.300;2022-11-15T09:33:59;40.35;;;25.52;;
18796;SDS011;9526;52.612;13.300;2022-11-15T09:36:42;37.58;;;25.60;;
18796;SDS011;9526;52.612;13.300;2022-11-15T09:39:26;40.00;;;25.05;;
18796;SDS011;9526;52.612;13.300;2022-11-15T09:42:23;38.38;;;23.98;;
18796;SDS011;9526;52.612;13.300;2022-11-15T09:45:20;39.45;;;25.48;;
18796;SDS011;9526;52.612;13.300;2022-11-15T09:48:20;41.70;;;25.45;;
18796;SDS011;9526;52.612;13.300;2022-11-15T09:51:29;41.42;;;24.92;;
18796;SDS011;9526;52.612;13.300;2022-11-15T09:53:57;41.90;;;24.45;;
18796;SDS011;9526;52.612;13.300;2022-11-15T09:56:48;42.95;;;24.45;;
18796;SDS011;9526;52.612;13.300;2022-11-15T09:59:17;42.22;;;24.35;;
18796;SDS011;9526;52.612;13.300;2022-11-15T10:01:55;45.75;;;24.98;;
18796;SDS011;9526;52.612;13.300;2022-11-15T10:04:31;45.55;;;25.75;;
18796;SDS011;9526;52.612;13.300;2022-11-15T10:07:02;42.13;;;24.90;;
18796;SDS011;9526;52.612;13.300;2022-11-15T10:09:38;41.65;;;25.05;;
18796;SDS011;9526;52.612;13.300;2022-11-15T10:12:11;42.20;;;25.88;;
18796;SDS011;9526;52.612;13.300;2022-11-15T10:14:36;41.25;;;25.60;;
18796;SDS011;9526;52.612;13.300;2022-11-15T10:17:10;40.78;;;24.95;;
18796;SDS011;9526;52.612;13.300;2022-11-15T10:19:47;41.58;;;24.10;;
18796;SDS011;9526;52.612;13.300;2022-11-15T10:22:27;44.42;;;23.73;;
18796;SDS011;9526;52.612;13.300;2022-11-15T10:24:58;39.88;;;24.45;;
18796;SDS011;9526;52.612;13.300;2022-11-15T10:27:41;40.45;;;23.73;;
18796;SDS011;9526;52.612;13.300;2022-11-15T10:30:10;37.78;;;23.70;;
18796;SDS011;9526;52.612;13.300;2022-11-15T10:32:36;37.28;;;22.67;;
18796;SDS011;9526;52.612;13.300;2022-11-15T10:35:00;38.22;;;22.65;;
18796;SDS011;9526;52.612;13.300;2022-11-15T10:37:44;38.92;;;21.73;;
18796;SDS011;9526;52.612;13.300;2022-11-15T10:40:15;40.38;;;23.38;;
18796;SDS011;9526;52.612;13.300;2022-11-15T10:42:43;34.90;;;22.13;;
18796;SDS011;9526;52.612;13.300;2022-11-15T10:45:11;34.53;;;22.17;;
18796;SDS011;9526;52.612;13.300;2022-11-15T10:47:48;38.13;;;22.23;;
18796;SDS011;9526;52.612;13.300;2022-11-15T10:50:25;39.08;;;21.65;;
18796;SDS011;9526;52.612;13.300;2022-11-15T10:52:51;38.92;;;22.65;;
18796;SDS011;9526;52.612;13.300;2022-11-15T10:55:23;40.03;;;22.25;;
18796;SDS011;9526;52.612;13.300;2022-11-15T10:57:52;39.00;;;22.58;;
18796;SDS011;9526;52.612;13.300;2022-11-15T11:00:26;38.53;;;21.52;;
18796;SDS011;9526;52.612;13.300;2022-11-15T11:02:59;35.95;;;22.17;;
18796;SDS011;9526;52.612;13.300;2022-11-15T11:05:26;33.88;;;21.67;;
18796;SDS011;9526;52.612;13.300;2022-11-15T11:08:02;37.90;;;21.52;;
18796;SDS011;9526;52.612;13.300;2022-11-15T11:10:28;33.63;;;20.85;;
18796;SDS011;9526;52.612;13.300;2022-11-15T11:13:13;38.20;;;21.95;;
18796;SDS011;9526;52.612;13.300;2022-11-15T11:15:43;34.35;;;20.73;;
18796;SDS011;9526;52.612;13.300;2022-11-15T11:18:11;32.08;;;20.98;;
18796;SDS011;9526;52.612;13.300;2022-11-15T11:20:45;32.33;;;20.20;;
18796;SDS011;9526;52.612;13.300;2022-11-15T11:23:18;33.25;;;20.10;;
18796;SDS011;9526;52.612;13.300;2022-11-15T11:26:01;36.10;;;20.48;;
18796;SDS011;9526;52.612;13.300;2022-11-15T11:28:48;36.47;;;20.90;;
18796;SDS011;9526;52.612;13.300;2022-11-15T11:31:21;36.15;;;21.38;;
18796;SDS011;9526;52.612;13.300;2022-11-15T11:33:58;34.55;;;20.42;;
18796;SDS011;9526;52.612;13.300;2022-11-15T11:36:37;41.75;;;21.42;;
18796;SDS011;9526;52.612;13.300;2022-11-15T11:39:17;34.45;;;21.55;;
18796;SDS011;9526;52.612;13.300;2022-11-15T11:41:52;38.15;;;22.20;;
18796;SDS011;9526;52.612;13.300;2022-11-15T11:44:30;30.90;;;20.25;;
18796;SDS011;9526;52.612;13.300;2022-11-15T11:47:03;34.50;;;20.63;;
18796;SDS011;9526;52.612;13.300;2022-11-15T11:49:34;36.05;;;19.55;;
18796;SDS011;9526;52.612;13.300;2022-11-15T11:52:08;31.73;;;19.48;;
18796;SDS011;9526;52.612;13.300;2022-11-15T11:54:40;34.15;;;20.27;;
18796;SDS011;9526;52.612;13.300;2022-11-15T11:57:16;33.42;;;20.25;;
18796;SDS011;9526;52.612;13.300;2022-11-15T11:59:50;35.33;;;19.75;;
18796;SDS011;9526;52.612;13.300;2022-11-15T12:02:21;33.13;;;20.52;;
18796;SDS011;9526;52.612;13.300;2022-11-15T12:04:51;35.10;;;19.90;;
18796;SDS011;9526;52.612;13.300;2022-11-15T12:07:24;36.35;;;20.10;;
18796;SDS011;9526;52.612;13.300;2022-11-15T12:09:55;32.10;;;19.88;;
18796;SDS011;9526;52.612;13.300;2022-11-15T12:12:25;36.33;;;19.27;;
18796;SDS011;9526;52.612;13.300;2022-11-15T12:15:02;34.03;;;20.10;;
18796;SDS011;9526;52.612;13.300;2022-11-15T12:17:34;36.03;;;20.27;;
18796;SDS011;9526;52.612;13.300;2022-11-15T12:20:00;32.42;;;19.58;;
18796;SDS011;9526;52.612;13.300;2022-11-15T12:22:33;32.63;;;20.23;;
18796;SDS011;9526;52.612;13.300;2022-11-15T12:25:02;36.47;;;21.85;;
18796;SDS011;9526;52.612;13.300;2022-11-15T12:27:31;37.35;;;22.15;;
18796;SDS011;9526;52.612;13.300;2022-11-15T12:30:03;32.13;;;20.80;;
18796;SDS011;9526;52.612;13.300;2022-11-15T12:32:33;37.03;;;21.77;;
18796;SDS011;9526;52.612;13.300;2022-11-15T12:35:00;30.90;;;21.02;;
18796;SDS011;9526;52.612;13.300;2022-11-15T12:46:03;35.35;;;21.20;;
18796;SDS011;9526;52.612;13.300;2022-11-15T12:48:48;32.83;;;20.83;;
18796;SDS011;9526;52.612;13.300;2022-11-15T12:51:15;40.90;;;21.17;;
18796;SDS011;9526;52.612;13.300;2022-11-15T12:53:39;33.85;;;20.55;;
18796;SDS011;9526;52.612;13.300;2022-11-15T12:56:20;35.92;;;20.15;;
18796;SDS011;9526;52.612;13.300;2022-11-15T12:58:46;39.58;;;22.35;;
18796;SDS011;9526;52.612;13.300;2022-11-15T13:04:24;36.83;;;21.25;;
18796;SDS011;9526;52.612;13.300;2022-11-15T13:06:51;36.95;;;21.48;;
18796;SDS011;9526;52.612;13.300;2022-11-15T13:18:28;40.25;;;24.77;;
18796;SDS011;9526;52.612;13.300;2022-11-15T13:20:56;38.10;;;21.73;;
18796;SDS011;9526;52.612;13.300;2022-11-15T13:23:23;34.20;;;21.40;;
18796;SDS011;9526;52.612;13.300;2022-11-15T13:25:50;32.63;;;20.50;;
18796;SDS011;9526;52.612;13.300;2022-11-15T13:28:33;34.47;;;21.13;;
18796;SDS011;9526;52.612;13.300;2022-11-15T13:31:00;32.33;;;20.77;;
18796;SDS011;9526;52.612;13.300;2022-11-15T13:33:43;31.95;;;20.83;;
18796;SDS011;9526;52.612;13.300;2022-11-15T13:36:09;32.80;;;21.15;;
18796;SDS011;9526;52.612;13.300;2022-11-15T13:38:39;34.30;;;19.92;;
18796;SDS011;9526;52.612;13.300;2022-11-15T13:41:11;35.00;;;20.52;;
18796;SDS011;9526;52.612;13.300;2022-11-15T13:43:42;33.88;;;20.38;;
18796;SDS011;9526;52.612;13.300;2022-11-15T13:46:06;32.00;;;19.02;;
18796;SDS011;9526;52.612;13.300;2022-11-15T13:48:34;29.85;;;18.88;;
18796;SDS011;9526;52.612;13.300;2022-11-15T13:51:00;31.60;;;18.98;;
18796;SDS011;9526;52.612;13.300;2022-11-15T13:53:26;31.83;;;18.85;;
18796;SDS011;9526;52.612;13.300;2022-11-15T13:55:49;31.17;;;19.17;;
18796;SDS011;9526;52.612;13.300;2022-11-15T13:58:14;29.80;;;18.15;;
18796;SDS011;9526;52.612;13.300;2022-11-15T14:00:44;29.10;;;18.45;;
18796;SDS011;9526;52.612;13.300;2022-11-15T14:03:12;31.15;;;20.27;;
18796;SDS011;9526;52.612;13.300;2022-11-15T14:05:41;33.85;;;20.00;;
18796;SDS011;9526;52.612;13.300;2022-11-15T14:08:20;31.98;;;20.38;;
18796;SDS011;9526;52.612;13.300;2022-11-15T14:10:46;35.25;;;21.80;;
18796;SDS011;9526;52.612;13.300;2022-11-15T14:13:10;33.05;;;20.30;;
18796;SDS011;9526;52.612;13.300;2022-11-15T14:15:50;38.83;;;20.95;;
18796;SDS011;9526;52.612;13.300;2022-11-15T14:21:07;33.20;;;22.27;;
18796;SDS011;9526;52.612;13.300;2022-11-15T14:23:33;34.53;;;21.08;;
18796;SDS011;9526;52.612;13.300;2022-11-15T14:25:57;36.80;;;21.80;;
18796;SDS011;9526;52.612;13.300;2022-11-15T14:28:31;38.30;;;22.58;;
18796;SDS011;9526;52.612;13.300;2022-11-15T14:31:00;36.88;;;21.73;;
18796;SDS011;9526;52.612;13.300;2022-11-15T14:33:34;38.10;;;21.60;;
18796;SDS011;9526;52.612;13.300;2022-11-15T14:36:02;35.13;;;21.60;;
18796;SDS011;9526;52.612;13.300;2022-11-15T14:38:29;34.80;;;21.48;;
18796;SDS011;9526;52.612;13.300;2022-11-15T14:40:55;36.45;;;22.73;;
18796;SDS011;9526;52.612;13.300;2022-11-15T14:43:19;37.35;;;21.88;;
18796;SDS011;9526;52.612;13.300;2022-11-15T14:45:43;34.70;;;20.77;;
18796;SDS011;9526;52.612;13.300;2022-11-15T14:48:07;35.72;;;20.85;;
18796;SDS011;9526;52.612;13.300;2022-11-15T14:50:31;35.38;;;22.40;;
18796;SDS011;9526;52.612;13.300;2022-11-15T14:52:56;31.83;;;20.77;;
18796;SDS011;9526;52.612;13.300;2022-11-15T14:55:20;34.42;;;21.38;;
18796;SDS011;9526;52.612;13.300;2022-11-15T14:57:48;33.35;;;20.83;;
18796;SDS011;9526;52.612;13.300;2022-11-15T15:00:12;43.42;;;21.85;;
18796;SDS011;9526;52.612;13.300;2022-11-15T15:02:37;35.80;;;21.35;;
18796;SDS011;9526;52.612;13.300;2022-11-15T15:05:00;35.85;;;21.63;;
18796;SDS011;9526;52.612;13.300;2022-11-15T15:07:29;41.95;;;23.42;;
18796;SDS011;9526;52.612;13.300;2022-11-15T15:09:53;40.47;;;22.08;;
18796;SDS011;9526;52.612;13.300;2022-11-15T15:12:37;38.28;;;23.75;;
18796;SDS011;9526;52.612;13.300;2022-11-15T15:15:02;40.50;;;23.25;;
18796;SDS011;9526;52.612;13.300;2022-11-15T15:17:27;42.88;;;24.20;;
18796;SDS011;9526;52.612;13.300;2022-11-15T15:19:51;41.50;;;24.65;;
18796;SDS011;9526;52.612;13.300;2022-11-15T15:22:15;39.35;;;23.98;;
18796;SDS011;9526;52.612;13.300;2022-11-15T15:24:41;42.60;;;24.20;;
18796;SDS011;9526;52.612;13.300;2022-11-15T15:27:05;39.13;;;24.45;;
18796;SDS011;9526;52.612;13.300;2022-11-15T15:29:29;40.75;;;23.45;;
18796;SDS011;9526;52.612;13.300;2022-11-15T15:31:54;40.38;;;24.35;;
18796;SDS011;9526;52.612;13.300;2022-11-15T15:34:17;40.47;;;24.00;;
18796;SDS011;9526;52.612;13.300;2022-11-15T15:36:41;43.25;;;25.92;;
18796;SDS011;9526;52.612;13.300;2022-11-15T15:39:04;43.42;;;26.27;;
18796;SDS011;9526;52.612;13.300;2022-11-15T15:41:31;45.08;;;26.42;;
18796;SDS011;9526;52.612;13.300;2022-11-15T15:43:55;51.20;;;29.63;;
18796;SDS011;9526;52.612;13.300;2022-11-15T15:46:18;44.70;;;26.38;;
18796;SDS011;9526;52.612;13.300;2022-11-15T15:48:44;41.38;;;25.40;;
18796;SDS011;9526;52.612;13.300;2022-11-15T15:51:08;49.83;;;27.75;;
18796;SDS011;9526;52.612;13.300;2022-11-15T15:53:40;50.00;;;26.85;;
18796;SDS011;9526;52.612;13.300;2022-11-15T15:56:04;47.30;;;26.88;;